Time;durP1;ratioP1;P1;durP2;ratioP2;P2;SDS_P1;SDS_P2;PMS_P1;PMS_P2;Temp;Humidity;BMP_temperature;BMP_pressure;BME280_temperature;BME280_humidity;BME280_pressure;Samples;Min_cycle;Max_cycle;Signal;HPM_P1;HPM_P2
2021/12/17 00:00:58;;;;;;;106.97;38.47;;;9.90;99.90;;;;;;5013371;28;20030;-87
2021/12/17 00:03:44;;;;;;;98.73;37.67;;;9.90;99.90;;;;;;5012790;28;20030;-87
2021/12/17 00:06:17;;;;;;;116.90;40.57;;;9.90;99.90;;;;;;5012182;28;20057;-87
2021/12/17 00:08:47;;;;;;;108.53;38.87;;;9.90;99.90;;;;;;5012249;28;20034;-87
2021/12/17 00:11:14;;;;;;;104.57;38.30;;;9.90;99.90;;;;;;5012201;28;20044;-87
2021/12/17 00:13:42;;;;;;;116.03;41.23;;;9.90;99.90;;;;;;5011757;28;20609;-87
2021/12/17 00:16:15;;;;;;;109.20;39.30;;;9.90;99.90;;;;;;5011925;28;20022;-86
2021/12/17 00:19:10;;;;;;;96.40;36.27;;;9.90;99.90;;;;;;5011558;28;20175;-87
2021/12/17 00:48:54;;;;;;;110.43;40.60;;;9.90;99.90;;;;;;5010901;28;20030;-87
2021/12/17 00:53:58;;;;;;;108.43;38.10;;;9.90;99.90;;;;;;5010844;28;20026;-87
2021/12/17 00:56:25;;;;;;;101.03;38.23;;;9.90;99.90;;;;;;5014802;28;20033;-87
2021/12/17 00:58:51;;;;;;;110.70;39.83;;;9.90;99.90;;;;;;5015299;28;20664;-86
2021/12/17 01:01:17;;;;;;;101.60;38.27;;;9.90;99.90;;;;;;5015060;28;20030;-87
2021/12/17 01:03:43;;;;;;;107.37;38.20;;;9.90;99.90;;;;;;5014777;28;20033;-88
2021/12/17 01:06:09;;;;;;;115.37;40.63;;;9.90;99.90;;;;;;5014782;28;20034;-87
2021/12/17 01:08:35;;;;;;;101.13;37.47;;;9.90;99.90;;;;;;5015131;28;20025;-87
2021/12/17 01:11:05;;;;;;;;;;;9.90;99.90;;;;;;5014731;28;20404;-87
2021/12/17 01:14:00;;;;;;;107.67;37.87;;;9.90;99.90;;;;;;5006444;28;20008;-87
2021/12/17 01:16:55;;;;;;;110.00;38.87;;;9.90;99.90;;;;;;5015258;28;20034;-87
2021/12/17 01:41:12;;;;;;;96.77;37.30;;;10.00;99.90;;;;;;5014148;28;20037;-86
2021/12/17 01:43:00;;;;;;;84.80;34.47;;;10.00;99.90;;;;;;4990445;28;20058;-86
2021/12/17 01:45:31;;;;;;;81.83;33.13;;;10.00;99.90;;;;;;5013831;28;20136;-86
2021/12/17 01:48:00;;;;;;;69.10;32.63;;;9.90;99.90;;;;;;5013461;28;20038;-86
2021/12/17 01:56:17;;;;;;;73.47;32.17;;;9.90;99.90;;;;;;5013776;28;20416;-86
2021/12/17 02:01:32;;;;;;;70.07;32.73;;;9.90;99.90;;;;;;5013661;28;20057;-86
2021/12/17 02:03:58;;;;;;;73.30;32.92;;;9.90;99.90;;;;;;5013713;28;20140;-87
2021/12/17 02:06:24;;;;;;;75.37;33.40;;;9.90;99.90;;;;;;5012798;28;20507;-86
2021/12/17 02:08:53;;;;;;;81.80;35.00;;;9.90;99.90;;;;;;5013010;28;20065;-86
2021/12/17 02:19:45;;;;;;;66.53;31.60;;;9.80;99.90;;;;;;5012839;28;20113;-86
2021/12/17 02:33:20;;;;;;;81.72;34.78;;;9.90;99.90;;;;;;5005114;28;20136;-86
2021/12/17 02:35:48;;;;;;;73.57;31.40;;;9.90;99.90;;;;;;5012717;28;20120;-86
2021/12/17 02:38:15;;;;;;;77.63;33.27;;;9.90;99.90;;;;;;5012535;28;20034;-87
2021/12/17 02:46:45;;;;;;;72.10;32.53;;;9.90;99.90;;;;;;5017604;28;20588;-86
2021/12/17 02:49:11;;;;;;;67.37;30.67;;;9.90;99.90;;;;;;5017710;28;20026;-86
2021/12/17 02:51:37;;;;;;;77.50;32.77;;;9.90;99.90;;;;;;5015809;28;20033;-86
2021/12/17 02:54:03;;;;;;;77.27;33.97;;;9.90;99.90;;;;;;5012852;28;20481;-86
2021/12/17 02:56:29;;;;;;;77.33;33.27;;;9.90;99.90;;;;;;5012745;28;20408;-86
2021/12/17 02:58:55;;;;;;;72.60;32.50;;;9.90;99.90;;;;;;5012105;28;20465;-86
2021/12/17 03:01:22;;;;;;;74.93;33.47;;;9.90;99.90;;;;;;5012337;28;20034;-85
2021/12/17 03:03:51;;;;;;;83.20;32.70;;;9.90;99.90;;;;;;5012723;28;20030;-86
2021/12/17 03:06:19;;;;;;;70.50;32.00;;;9.90;99.90;;;;;;5012601;28;20400;-85
2021/12/17 03:08:47;;;;;;;77.20;33.10;;;9.90;99.90;;;;;;5013173;28;20112;-86
2021/12/17 03:11:13;;;;;;;75.67;32.20;;;9.90;99.90;;;;;;5012217;28;20484;-86
2021/12/17 03:13:39;;;;;;;78.53;31.63;;;9.90;99.90;;;;;;5012377;28;20404;-86
2021/12/17 03:16:25;;;;;;;70.00;30.97;;;9.90;99.90;;;;;;5012127;28;20187;-86
2021/12/17 03:24:07;;;;;;;74.07;32.77;;;9.90;99.90;;;;;;5012203;28;20034;-86
2021/12/17 03:26:34;;;;;;;70.50;33.27;;;9.90;99.90;;;;;;5012058;28;20034;-86
2021/12/17 03:29:06;;;;;;;70.87;31.70;;;9.90;99.90;;;;;;5011519;28;20175;-86
2021/12/17 03:31:33;;;;;;;71.40;31.43;;;9.90;99.90;;;;;;5011819;28;20026;-86
2021/12/17 03:34:24;;;;;;;;;;;9.90;99.90;;;;;;5011877;28;20037;-86
2021/12/17 03:36:54;;;;;;;62.10;30.03;;;9.90;99.90;;;;;;4995712;28;20432;-86
2021/12/17 03:39:26;;;;;;;66.75;29.95;;;9.90;99.90;;;;;;5011642;28;20022;-86
2021/12/17 03:41:53;;;;;;;72.23;31.03;;;9.90;99.90;;;;;;5011442;28;20038;-86
2021/12/17 03:44:37;;;;;;;67.87;30.77;;;9.90;99.90;;;;;;5009324;28;20366;-86
2021/12/17 03:47:27;;;;;;;62.25;29.67;;;9.90;99.90;;;;;;5011445;28;20034;-86
2021/12/17 03:50:33;;;;;;;59.60;28.83;;;9.90;99.90;;;;;;5006355;28;20106;-86
2021/12/17 03:52:59;;;;;;;66.00;30.10;;;9.90;99.90;;;;;;5011461;28;20029;-86
2021/12/17 03:55:31;;;;;;;66.67;30.63;;;9.90;99.90;;;;;;5011028;28;20026;-86
2021/12/17 03:58:01;;;;;;;68.03;29.73;;;9.90;99.90;;;;;;5010991;28;20129;-86
2021/12/17 04:00:29;;;;;;;59.70;27.97;;;9.90;99.90;;;;;;5011424;28;20576;-86
2021/12/17 04:02:59;;;;;;;64.27;30.17;;;9.90;99.90;;;;;;5010725;28;20515;-86
2021/12/17 04:05:35;;;;;;;62.07;28.63;;;9.90;99.90;;;;;;5010101;28;20053;-86
2021/12/17 04:08:34;;;;;;;62.10;29.10;;;9.90;99.90;;;;;;5010989;28;20429;-86
2021/12/17 04:11:24;;;;;;;67.83;30.13;;;9.90;99.90;;;;;;5008160;28;20034;-86
2021/12/17 04:13:59;;;;;;;63.77;28.70;;;9.90;99.90;;;;;;5010059;28;20033;-85
2021/12/17 04:16:30;;;;;;;63.33;29.73;;;9.90;99.90;;;;;;5010938;28;20030;-86
2021/12/17 04:18:57;;;;;;;83.17;32.77;;;9.90;99.90;;;;;;5010746;28;20030;-86
2021/12/17 04:21:24;;;;;;;84.03;33.77;;;9.90;99.90;;;;;;5010794;28;20408;-86
2021/12/17 04:23:54;;;;;;;83.43;34.80;;;9.90;99.90;;;;;;5010994;28;20033;-86
2021/12/17 04:26:21;;;;;;;82.45;32.40;;;9.80;99.90;;;;;;5011100;28;20469;-87
2021/12/17 04:28:53;;;;;;;71.37;32.40;;;9.80;99.90;;;;;;5010017;28;20140;-86
2021/12/17 04:31:26;;;;;;;72.13;31.93;;;9.80;99.90;;;;;;5010462;28;20050;-86
2021/12/17 04:33:52;;;;;;;76.07;31.57;;;9.80;99.90;;;;;;5010951;28;20026;-85
2021/12/17 04:36:24;;;;;;;82.07;33.80;;;9.70;99.90;;;;;;5010810;28;20052;-86
2021/12/17 04:38:56;;;;;;;82.27;34.97;;;9.70;99.90;;;;;;5010432;28;20032;-86
2021/12/17 04:44:07;;;;;;;78.00;32.50;;;9.60;99.90;;;;;;5010886;28;20500;-86
2021/12/17 04:59:47;;;;;;;78.80;33.90;;;9.70;99.90;;;;;;5010159;28;20030;-86
2021/12/17 05:02:16;;;;;;;81.97;33.33;;;9.70;99.90;;;;;;5010589;28;20056;-86
2021/12/17 05:04:52;;;;;;;83.57;34.27;;;9.70;99.90;;;;;;5009483;28;20041;-86
2021/12/17 05:07:19;;;;;;;80.57;32.50;;;9.70;99.90;;;;;;5011004;28;20100;-86
2021/12/17 05:09:59;;;;;;;82.57;33.20;;;9.70;99.90;;;;;;5009830;28;20026;-86
2021/12/17 05:20:50;;;;;;;73.18;28.27;;;9.70;99.90;;;;;;5010507;28;20069;-86
2021/12/17 05:23:26;;;;;;;72.70;29.07;;;9.70;99.90;;;;;;5010536;28;20037;-87
2021/12/17 05:25:54;;;;;;;67.30;27.13;;;9.70;99.90;;;;;;5010749;28;20393;-87
2021/12/17 05:28:23;;;;;;;67.75;27.10;;;9.60;99.90;;;;;;5010179;28;20112;-87
2021/12/17 05:30:50;;;;;;;72.57;27.77;;;9.70;99.90;;;;;;5010814;28;20125;-87
2021/12/17 05:33:18;;;;;;;61.53;26.07;;;9.70;99.90;;;;;;5010579;28;20057;-87
2021/12/17 05:35:46;;;;;;;65.40;26.67;;;9.70;99.90;;;;;;5010756;28;20481;-86
2021/12/17 06:21:19;;;;;;;52.90;23.03;;;9.60;99.90;;;;;;5052908;28;20077;-90
2021/12/17 06:23:45;;;;;;;53.97;22.63;;;9.60;99.90;;;;;;5020156;28;20434;-90
2021/12/17 06:26:11;;;;;;;52.87;21.83;;;9.50;99.90;;;;;;5017112;28;20087;-89
2021/12/17 06:28:40;;;;;;;50.45;21.85;;;9.50;99.90;;;;;;5016419;28;20028;-89
2021/12/17 06:31:06;;;;;;;48.13;21.10;;;9.50;99.90;;;;;;5016660;28;20429;-89
2021/12/17 06:33:34;;;;;;;52.27;22.60;;;9.50;99.90;;;;;;5055017;23;20045;-86
2021/12/17 06:36:01;;;;;;;51.80;22.33;;;9.50;99.90;;;;;;5036262;28;20394;-86
2021/12/17 06:38:27;;;;;;;47.10;20.90;;;9.50;99.90;;;;;;5035844;28;20025;-86
2021/12/17 06:40:58;;;;;;;56.60;23.40;;;9.50;99.90;;;;;;5035905;28;20021;-87
2021/12/17 06:43:31;;;;;;;56.03;22.67;;;9.50;99.90;;;;;;5039230;28;20034;-87
2021/12/17 06:46:12;;;;;;;62.67;25.20;;;9.50;99.90;;;;;;5016427;28;20514;-86
2021/12/17 06:48:38;;;;;;;59.37;23.27;;;9.50;99.90;;;;;;5015659;28;20035;-86
2021/12/17 07:06:33;;;;;;;53.43;21.90;;;9.50;99.90;;;;;;4992278;28;20101;-86
2021/12/17 07:18:53;;;;;;;51.53;19.20;;;9.50;99.90;;;;;;5001348;28;20041;-86
2021/12/17 07:23:15;;;;;;;56.97;19.80;;;9.40;99.90;;;;;;5032037;28;20044;-86
2021/12/17 07:34:03;;;;;;;49.33;19.33;;;9.40;99.90;;;;;;5031620;28;20029;-86
2021/12/17 07:39:31;;;;;;;53.20;20.70;;;9.40;99.90;;;;;;5031584;28;20027;-86
2021/12/17 07:42:13;;;;;;;50.40;20.05;;;9.40;99.90;;;;;;5015285;28;20390;-86
2021/12/17 07:44:38;;;;;;;49.87;18.53;;;9.40;99.90;;;;;;5032844;28;20103;-85
2021/12/17 07:47:28;;;;;;;47.40;19.03;;;9.40;99.90;;;;;;5018254;28;20033;-86
2021/12/17 07:50:12;;;;;;;50.60;18.40;;;9.40;99.90;;;;;;5018060;28;20387;-86
2021/12/17 07:52:57;;;;;;;48.30;18.20;;;9.40;99.90;;;;;;5032687;28;20060;-86
2021/12/17 07:55:23;;;;;;;48.93;18.20;;;9.40;99.90;;;;;;5014657;28;20508;-85
2021/12/17 07:57:50;;;;;;;50.43;18.70;;;9.40;99.90;;;;;;5014390;28;20026;-86
2021/12/17 08:00:22;;;;;;;44.10;15.90;;;9.40;99.90;;;;;;4999325;28;20033;-85
2021/12/17 08:02:53;;;;;;;40.40;16.30;;;9.40;99.90;;;;;;5014714;28;20120;-86
2021/12/17 08:05:43;;;;;;;47.17;17.83;;;9.40;99.90;;;;;;5014027;28;20519;-85
2021/12/17 08:08:10;;;;;;;47.53;16.93;;;9.40;99.90;;;;;;5014181;28;20549;-85
2021/12/17 08:10:36;;;;;;;45.10;17.97;;;9.40;99.90;;;;;;5014488;28;20025;-85
2021/12/17 08:13:02;;;;;;;44.53;18.37;;;9.40;99.90;;;;;;5014500;28;20506;-85
2021/12/17 08:15:33;;;;;;;46.00;18.67;;;9.40;99.90;;;;;;5014658;28;20056;-85
2021/12/17 08:26:11;;;;;;;53.50;21.57;;;9.50;99.90;;;;;;5032311;28;20025;-85
2021/12/17 08:31:36;;;;;;;45.27;18.43;;;9.50;99.90;;;;;;5001615;28;20033;-86
2021/12/17 08:34:04;;;;;;;45.47;18.63;;;9.50;99.90;;;;;;5014350;28;20053;-86
2021/12/17 08:36:33;;;;;;;41.30;16.63;;;9.50;99.90;;;;;;5014763;28;20045;-85
2021/12/17 08:39:00;;;;;;;39.00;15.27;;;9.50;99.90;;;;;;5017373;28;20407;-85
2021/12/17 08:41:30;;;;;;;38.93;15.33;;;9.50;99.90;;;;;;5018319;28;20025;-85
2021/12/17 08:43:58;;;;;;;34.67;14.43;;;9.50;99.90;;;;;;5015400;28;20033;-85
2021/12/17 08:46:25;;;;;;;38.77;14.87;;;9.50;99.90;;;;;;5014365;28;20495;-85
2021/12/17 08:49:14;;;;;;;36.95;14.68;;;9.50;99.90;;;;;;5014002;28;20021;-85
2021/12/17 08:52:08;;;;;;;36.10;14.93;;;9.50;99.90;;;;;;5014072;28;20041;-85
2021/12/17 08:54:34;;;;;;;37.37;14.63;;;9.50;99.90;;;;;;5030802;28;20120;-86
2021/12/17 08:57:02;;;;;;;33.63;15.03;;;9.40;99.90;;;;;;5014279;28;20022;-85
2021/12/17 08:59:33;;;;;;;37.43;15.30;;;9.50;99.90;;;;;;5013634;28;20057;-85
2021/12/17 09:02:19;;;;;;;38.27;15.87;;;9.50;99.90;;;;;;5009931;28;20025;-87
2021/12/17 09:04:56;;;;;;;40.33;16.77;;;9.50;99.90;;;;;;5014488;28;20464;-85
2021/12/17 09:07:22;;;;;;;45.43;18.83;;;9.50;99.90;;;;;;5014256;28;20036;-86
2021/12/17 09:09:51;;;;;;;49.47;20.42;;;9.50;99.90;;;;;;5014009;28;20504;-85
2021/12/17 09:12:23;;;;;;;46.33;21.00;;;9.60;99.90;;;;;;5014155;28;20037;-85
2021/12/17 09:14:53;;;;;;;45.33;19.20;;;9.50;99.90;;;;;;5014080;28;20052;-86
2021/12/17 09:17:38;;;;;;;43.43;19.27;;;9.50;99.90;;;;;;5020844;28;20068;-85
2021/12/17 09:20:06;;;;;;;43.03;18.50;;;9.50;99.90;;;;;;5017845;28;20026;-86
2021/12/17 09:22:33;;;;;;;44.93;18.93;;;9.50;99.90;;;;;;5017780;28;20033;-86
2021/12/17 09:25:04;;;;;;;47.37;20.00;;;9.50;99.90;;;;;;5018104;28;20605;-86
2021/12/17 09:27:50;;;;;;;40.93;18.93;;;9.60;99.90;;;;;;5017699;28;20084;-86
2021/12/17 09:30:35;;;;;;;46.57;21.60;;;9.60;99.90;;;;;;5035477;28;20091;-86
2021/12/17 09:33:01;;;;;;;40.93;19.80;;;9.60;99.90;;;;;;5017345;28;20041;-86
2021/12/17 09:35:27;;;;;;;46.67;20.97;;;9.60;99.90;;;;;;5017747;28;20033;-86
2021/12/17 09:37:53;;;;;;;49.50;22.07;;;9.60;99.90;;;;;;5017505;28;20396;-86
2021/12/17 09:40:19;;;;;;;48.60;21.77;;;9.60;99.90;;;;;;5017718;28;20025;-86
2021/12/17 09:42:45;;;;;;;54.37;25.03;;;9.60;99.90;;;;;;5017525;28;20029;-86
2021/12/17 09:45:13;;;;;;;53.47;25.90;;;9.60;99.90;;;;;;5017472;28;20036;-86
2021/12/17 09:47:40;;;;;;;55.67;25.50;;;9.70;99.90;;;;;;5017175;28;20032;-87
2021/12/17 09:50:07;;;;;;;57.63;25.10;;;9.70;99.90;;;;;;5017361;28;20111;-86
2021/12/17 09:52:34;;;;;;;53.93;25.30;;;9.70;99.90;;;;;;5017234;28;20503;-86
2021/12/17 09:55:00;;;;;;;56.33;25.47;;;9.70;99.90;;;;;;5017279;28;20044;-86
2021/12/17 09:57:26;;;;;;;53.83;24.77;;;9.80;99.90;;;;;;5017195;28;20180;-86
2021/12/17 09:59:53;;;;;;;50.93;24.03;;;9.70;99.90;;;;;;5017138;28;20589;-85
2021/12/17 10:02:20;;;;;;;50.47;24.47;;;9.80;99.90;;;;;;5017133;28;20029;-85
2021/12/17 10:04:46;;;;;;;50.50;23.87;;;9.80;99.90;;;;;;5017163;28;20029;-86
2021/12/17 10:07:19;;;;;;;53.07;24.70;;;9.80;99.90;;;;;;5017096;28;20029;-86
2021/12/17 10:09:52;;;;;;;49.13;25.00;;;9.80;99.90;;;;;;5018266;28;20025;-86
2021/12/17 10:12:26;;;;;;;48.30;24.23;;;9.80;99.90;;;;;;5035735;28;20472;-86
2021/12/17 10:15:12;;;;;;;43.63;21.30;;;9.80;99.90;;;;;;5018691;28;20036;-86
2021/12/17 10:18:00;;;;;;;49.00;24.63;;;9.80;99.90;;;;;;5018412;28;20025;-84
2021/12/17 10:20:29;;;;;;;49.42;23.55;;;9.80;99.90;;;;;;5020551;28;20048;-85
2021/12/17 10:23:07;;;;;;;49.90;24.20;;;9.80;99.90;;;;;;5017292;28;20120;-87
2021/12/17 10:25:42;;;;;;;47.65;25.08;;;9.80;99.90;;;;;;5018783;28;20671;-86
2021/12/17 10:28:08;;;;;;;51.33;24.77;;;9.90;99.90;;;;;;5016606;28;20033;-89
2021/12/17 10:30:36;;;;;;;48.00;24.73;;;9.80;99.90;;;;;;5019617;28;20032;-86
2021/12/17 10:33:06;;;;;;;46.43;25.00;;;9.90;99.90;;;;;;4999262;28;20040;-85
2021/12/17 10:35:34;;;;;;;47.38;25.85;;;9.90;99.90;;;;;;5027417;28;20025;-86
2021/12/17 10:38:04;;;;;;;48.20;26.13;;;9.90;99.90;;;;;;5025851;28;20029;-88
2021/12/17 10:41:17;;;;;;;50.07;25.23;;;9.90;99.90;;;;;;5035216;28;20021;-86
2021/12/17 10:43:40;;;;;;;47.77;25.63;;;9.90;99.90;;;;;;5050928;28;20075;-87
2021/12/17 10:46:22;;;;;;;45.03;24.33;;;9.90;99.90;;;;;;5034906;28;20028;-87
2021/12/17 10:48:53;;;;;;;42.97;24.63;;;9.90;99.90;;;;;;5034280;28;20044;-87
2021/12/17 10:54:03;;;;;;;39.37;21.73;;;9.90;99.90;;;;;;5053039;28;20572;-87
2021/12/17 10:56:36;;;;;;;43.50;23.00;;;9.90;99.90;;;;;;5034390;28;20037;-86
2021/12/17 10:59:09;;;;;;;45.37;22.80;;;9.90;99.90;;;;;;5033885;28;20120;-88
2021/12/17 11:01:46;;;;;;;45.67;23.33;;;9.90;99.90;;;;;;5022360;28;20044;-87
2021/12/17 11:04:12;;;;;;;47.73;23.20;;;9.90;99.90;;;;;;4998034;28;20034;-87
2021/12/17 11:07:07;;;;;;;41.00;20.90;;;9.90;99.90;;;;;;5014793;28;20438;-88
2021/12/17 11:09:50;;;;;;;43.30;22.30;;;9.90;99.90;;;;;;4987272;28;20048;-87
2021/12/17 11:12:31;;;;;;;46.13;23.30;;;9.90;99.90;;;;;;5014728;28;20079;-85
2021/12/17 11:15:23;;;;;;;41.43;22.00;;;9.90;99.90;;;;;;5014790;28;20026;-85
2021/12/17 11:17:53;;;;;;;41.60;21.00;;;9.90;99.90;;;;;;5013779;28;20442;-85
2021/12/17 11:20:22;;;;;;;42.60;21.47;;;9.90;99.90;;;;;;5013645;28;20486;-86
2021/12/17 11:22:49;;;;;;;;;;;10.00;99.90;;;;;;5015424;28;20032;-87
2021/12/17 11:25:16;;;;;;;42.13;20.77;;;9.90;99.90;;;;;;5014876;28;19916;-86
2021/12/17 11:27:42;;;;;;;40.07;20.63;;;10.00;99.90;;;;;;5014064;28;20040;-86
2021/12/17 11:30:12;;;;;;;39.00;19.93;;;10.00;99.90;;;;;;5013623;28;20041;-86
2021/12/17 11:32:38;;;;;;;42.43;20.43;;;10.00;99.90;;;;;;5013859;28;20033;-88
2021/12/17 11:35:05;;;;;;;40.23;20.83;;;10.00;99.90;;;;;;5013594;28;20063;-88
2021/12/17 11:37:32;;;;;;;36.97;19.07;;;10.00;99.90;;;;;;4996984;28;20135;-87
2021/12/17 11:40:04;;;;;;;44.07;21.70;;;10.00;99.90;;;;;;5013677;28;20037;-87
2021/12/17 11:42:38;;;;;;;38.33;20.33;;;10.00;99.90;;;;;;5014194;28;20026;-88
2021/12/17 11:45:26;;;;;;;45.27;22.37;;;10.10;99.90;;;;;;5013252;28;20041;-86
2021/12/17 11:48:16;;;;;;;46.77;24.00;;;10.00;99.90;;;;;;5012849;28;20025;-86
2021/12/17 11:50:43;;;;;;;45.80;23.73;;;10.00;99.90;;;;;;5006593;28;20140;-87
2021/12/17 11:53:19;;;;;;;49.43;23.87;;;10.00;99.90;;;;;;5002181;28;20068;-86
2021/12/17 11:55:54;;;;;;;46.03;24.20;;;10.00;99.90;;;;;;4993651;28;20026;-86
2021/12/17 11:58:42;;;;;;;42.37;22.50;;;10.00;99.90;;;;;;5010615;28;20026;-86
2021/12/17 12:01:08;;;;;;;42.50;21.53;;;10.00;99.90;;;;;;5009519;28;20131;-86
2021/12/17 12:03:34;;;;;;;34.50;19.60;;;10.10;99.90;;;;;;5009561;28;20122;-84
2021/12/17 12:06:00;;;;;;;38.20;20.30;;;10.00;99.90;;;;;;5010948;28;20059;-86
2021/12/17 12:08:47;;;;;;;36.10;20.03;;;10.00;99.90;;;;;;5009421;28;20042;-86
2021/12/17 12:11:16;;;;;;;34.50;19.73;;;10.00;99.90;;;;;;5009773;28;20069;-87
2021/12/17 12:13:46;;;;;;;;;;;10.00;99.90;;;;;;4993659;28;20065;-86
2021/12/17 12:16:21;;;;;;;33.00;17.93;;;9.90;99.90;;;;;;5008955;28;19972;-87
2021/12/17 12:18:53;;;;;;;30.83;18.10;;;10.00;99.90;;;;;;4993199;28;20026;-86
2021/12/17 12:21:21;;;;;;;29.50;17.07;;;10.00;99.90;;;;;;4993536;28;20526;-86
2021/12/17 12:23:53;;;;;;;30.77;17.27;;;9.90;99.90;;;;;;4995492;28;20030;-87
2021/12/17 12:26:25;;;;;;;24.77;15.60;;;10.00;99.90;;;;;;5003407;28;20033;-86
2021/12/17 12:29:03;;;;;;;30.30;16.47;;;9.90;99.90;;;;;;5014597;28;20025;-86
2021/12/17 12:31:34;;;;;;;28.37;16.20;;;10.00;99.90;;;;;;5015799;28;20403;-86
2021/12/17 12:34:10;;;;;;;24.33;14.10;;;10.00;99.90;;;;;;4997352;28;20037;-86
2021/12/17 12:37:03;;;;;;;24.13;13.93;;;10.00;99.90;;;;;;5013106;28;20476;-86
2021/12/17 12:39:29;;;;;;;25.20;14.70;;;10.00;99.90;;;;;;5012969;28;20468;-86
2021/12/17 12:41:55;;;;;;;23.47;13.90;;;10.10;99.90;;;;;;5015185;28;20506;-86
2021/12/17 12:44:39;;;;;;;21.73;13.97;;;10.00;99.90;;;;;;5024082;28;20037;-86
2021/12/17 12:47:06;;;;;;;21.47;13.43;;;10.10;99.90;;;;;;5026109;28;20093;-87
2021/12/17 12:49:54;;;;;;;22.07;13.03;;;10.10;99.90;;;;;;5005189;28;20050;-86
2021/12/17 12:52:31;;;;;;;16.63;11.43;;;10.10;99.90;;;;;;5025849;28;20124;-88
2021/12/17 12:55:05;;;;;;;17.53;11.37;;;10.10;99.90;;;;;;5030852;28;20084;-89
2021/12/17 12:57:34;;;;;;;17.97;11.97;;;10.10;99.90;;;;;;5013804;28;20026;-83
2021/12/17 13:00:19;;;;;;;14.95;10.38;;;10.10;99.90;;;;;;5014905;28;20117;-83
2021/12/17 13:02:55;;;;;;;14.73;9.90;;;10.10;99.90;;;;;;5027470;28;20041;-83
2021/12/17 13:05:21;;;;;;;16.03;10.73;;;10.10;99.90;;;;;;5029725;28;20032;-89
2021/12/17 13:07:53;;;;;;;15.43;10.30;;;10.10;99.90;;;;;;5027333;28;20049;-88
2021/12/17 13:10:24;;;;;;;12.93;9.03;;;10.10;99.90;;;;;;5025422;28;20524;-86
2021/12/17 13:13:20;;;;;;;10.67;8.07;;;10.10;99.90;;;;;;5016398;28;20644;-86
2021/12/17 13:24:16;;;;;;;8.10;5.23;;;10.00;99.90;;;;;;5011540;28;20069;-85
2021/12/17 13:26:58;;;;;;;8.57;4.43;;;10.00;99.90;;;;;;5016368;28;20034;-86
2021/12/17 13:29:31;;;;;;;5.70;3.93;;;10.00;99.90;;;;;;4993517;28;20087;-86
2021/12/17 13:32:02;;;;;;;6.83;3.40;;;10.00;99.90;;;;;;5010235;28;20041;-85
2021/12/17 13:34:48;;;;;;;6.13;3.30;;;9.90;99.90;;;;;;4996114;28;20037;-86
2021/12/17 13:37:15;;;;;;;5.17;3.20;;;10.00;99.90;;;;;;4997779;28;20038;-87
2021/12/17 13:40:05;;;;;;;6.27;3.27;;;9.90;99.90;;;;;;5005318;28;20025;-87
2021/12/17 13:42:36;;;;;;;5.33;2.93;;;10.00;99.90;;;;;;5012374;28;20061;-87
2021/12/17 13:45:14;;;;;;;4.73;2.93;;;9.90;99.90;;;;;;4996275;28;20060;-87
2021/12/17 13:47:42;;;;;;;5.47;3.20;;;10.00;99.90;;;;;;5001169;28;20029;-86
2021/12/17 13:50:24;;;;;;;7.37;3.87;;;9.90;99.90;;;;;;5008266;28;20034;-85
2021/12/17 13:52:58;;;;;;;6.50;3.80;;;9.90;99.90;;;;;;4997089;28;20285;-87
2021/12/17 13:55:27;;;;;;;7.23;4.33;;;9.90;99.90;;;;;;4981402;28;20041;-86
2021/12/17 13:57:53;;;;;;;6.53;4.47;;;9.90;99.90;;;;;;4981034;28;20017;-86
2021/12/17 14:00:31;;;;;;;7.63;4.53;;;9.90;99.90;;;;;;4978458;28;20045;-88
2021/12/17 14:02:58;;;;;;;7.27;4.47;;;9.90;99.90;;;;;;4996295;28;20511;-88
2021/12/17 14:05:28;;;;;;;7.70;4.97;;;10.00;99.90;;;;;;4997430;28;20033;-87
2021/12/17 14:08:03;;;;;;;7.47;4.77;;;10.00;99.90;;;;;;4997394;28;20038;-87
2021/12/17 14:10:34;;;;;;;6.90;4.47;;;10.00;99.90;;;;;;4997389;28;20034;-86
2021/12/17 14:13:01;;;;;;;7.70;4.77;;;10.00;99.90;;;;;;5020793;28;20395;-87
2021/12/17 14:15:29;;;;;;;8.13;4.83;;;10.00;99.90;;;;;;4990115;28;20033;-86
2021/12/17 14:17:58;;;;;;;8.97;6.07;;;9.90;99.90;;;;;;4982206;28;20030;-87
2021/12/17 14:20:36;;;;;;;9.70;6.30;;;9.90;99.90;;;;;;4946985;28;59214;-87
2021/12/17 14:23:14;;;;;;;10.20;7.43;;;9.90;99.90;;;;;;4976633;28;20064;-87
2021/12/17 14:25:44;;;;;;;11.52;6.90;;;9.90;99.90;;;;;;4960533;28;20038;-86
2021/12/17 14:28:25;;;;;;;10.33;6.83;;;9.90;99.90;;;;;;4957785;28;20749;-87
2021/12/17 14:31:01;;;;;;;10.80;7.20;;;9.90;99.90;;;;;;4996402;28;20030;-87
2021/12/17 14:33:39;;;;;;;11.27;7.70;;;9.90;99.90;;;;;;4979320;28;20480;-87
2021/12/17 14:36:08;;;;;;;11.33;7.30;;;9.90;99.90;;;;;;4995919;28;20022;-87
2021/12/17 14:38:49;;;;;;;11.18;7.90;;;9.90;99.90;;;;;;4978952;28;20033;-87
2021/12/17 14:41:22;;;;;;;10.50;7.70;;;9.80;99.90;;;;;;4979706;28;20120;-88
2021/12/17 14:44:03;;;;;;;12.00;7.63;;;9.90;99.90;;;;;;4979372;28;20067;-87
2021/12/17 14:46:48;;;;;;;12.73;8.13;;;9.90;99.90;;;;;;4979696;28;20029;-87
2021/12/17 15:03:42;;;;;;;10.17;7.60;;;9.80;99.90;;;;;;4995494;28;20144;-88
2021/12/17 15:06:10;;;;;;;11.97;7.03;;;9.80;99.90;;;;;;4979998;28;20030;-88
2021/12/17 15:08:36;;;;;;;8.67;6.17;;;9.70;99.90;;;;;;4979291;28;20030;-87
2021/12/17 15:11:08;;;;;;;11.77;7.73;;;9.80;99.90;;;;;;4978895;28;20033;-88
2021/12/17 15:13:34;;;;;;;9.97;7.07;;;9.80;99.90;;;;;;4979337;28;20310;-87
2021/12/17 15:16:02;;;;;;;11.97;7.60;;;9.80;99.90;;;;;;4995506;28;20396;-87
2021/12/17 15:18:31;;;;;;;13.23;6.83;;;9.80;99.90;;;;;;4977914;28;20045;-87
2021/12/17 15:20:57;;;;;;;;;;;9.80;99.90;;;;;;4979352;28;20124;-87
2021/12/17 15:23:24;;;;;;;10.00;6.90;;;9.80;99.90;;;;;;4994980;28;20375;-87
2021/12/17 15:25:52;;;;;;;11.77;7.27;;;9.80;99.90;;;;;;5011060;28;20163;-87
2021/12/17 15:28:22;;;;;;;11.33;7.07;;;9.70;99.90;;;;;;4977300;28;20051;-87
2021/12/17 15:30:49;;;;;;;;;;;9.70;99.90;;;;;;4978406;28;20029;-86
2021/12/17 15:33:15;;;;;;;10.50;7.87;;;9.80;99.90;;;;;;4978530;28;19920;-87
2021/12/17 15:35:43;;;;;;;11.27;7.53;;;9.70;99.90;;;;;;4978671;28;20084;-88
2021/12/17 15:38:10;;;;;;;13.23;8.23;;;9.80;99.90;;;;;;4977689;28;20474;-86
2021/12/17 15:40:41;;;;;;;9.70;7.40;;;9.70;99.90;;;;;;4978579;28;20036;-87
2021/12/17 15:43:08;;;;;;;14.60;9.23;;;9.70;99.90;;;;;;4977894;28;20145;-87
2021/12/17 15:45:37;;;;;;;14.27;8.97;;;9.70;99.90;;;;;;4978460;28;20499;-86
2021/12/17 15:48:05;;;;;;;11.97;8.17;;;9.70;99.90;;;;;;4976342;28;20393;-87
2021/12/17 15:50:31;;;;;;;14.23;8.40;;;9.70;99.90;;;;;;4978349;28;20056;-86
2021/12/17 15:52:57;;;;;;;12.53;8.23;;;9.70;99.90;;;;;;4977862;28;20138;-87
2021/12/17 15:55:25;;;;;;;12.50;7.50;;;9.70;99.90;;;;;;4978270;28;20072;-86
2021/12/17 15:57:54;;;;;;;13.40;8.10;;;9.70;99.90;;;;;;4993398;28;20161;-87
2021/12/17 16:00:26;;;;;;;11.73;7.90;;;9.70;99.90;;;;;;4981253;28;20030;-90
2021/12/17 16:03:06;;;;;;;10.63;7.30;;;9.70;99.90;;;;;;4994889;28;20076;-85
2021/12/17 16:05:33;;;;;;;;;;;9.60;99.90;;;;;;4978260;28;20449;-88
2021/12/17 16:08:00;;;;;;;10.70;7.13;;;9.60;99.90;;;;;;4976693;28;19967;-87
2021/12/17 16:21:13;;;;;;;12.77;6.90;;;9.60;99.90;;;;;;4993607;28;20022;-86
2021/12/17 16:23:46;;;;;;;12.40;6.60;;;9.60;99.90;;;;;;4993349;28;20368;-86
2021/12/17 16:26:15;;;;;;;12.80;7.00;;;9.60;99.90;;;;;;4993465;28;20026;-86
2021/12/17 16:28:45;;;;;;;10.70;6.30;;;9.60;99.90;;;;;;5010750;28;20546;-85
2021/12/17 16:31:17;;;;;;;14.83;6.33;;;9.60;99.90;;;;;;4993597;28;20037;-85
2021/12/17 16:33:45;;;;;;;11.93;6.60;;;9.60;99.90;;;;;;4977391;28;20456;-86
2021/12/17 16:36:11;;;;;;;9.40;6.13;;;9.60;99.90;;;;;;4994124;28;20121;-86
2021/12/17 16:38:38;;;;;;;10.50;6.07;;;9.60;99.90;;;;;;4977082;28;20066;-87
2021/12/17 16:41:05;;;;;;;10.53;6.10;;;9.60;99.90;;;;;;4993657;28;20365;-86
2021/12/17 16:43:32;;;;;;;9.77;6.47;;;9.60;99.90;;;;;;4977453;28;20123;-87
2021/12/17 16:48:34;;;;;;;12.40;7.10;;;9.60;99.90;;;;;;4992725;28;20064;-85
2021/12/17 16:51:00;;;;;;;8.43;6.30;;;9.50;99.90;;;;;;4977224;28;20034;-86
2021/12/17 16:53:26;;;;;;;10.27;6.47;;;9.50;99.90;;;;;;4976856;28;20041;-85
2021/12/17 16:55:52;;;;;;;11.87;6.60;;;9.60;99.90;;;;;;4977390;28;20076;-86
2021/12/17 16:58:18;;;;;;;11.43;6.53;;;9.50;99.90;;;;;;4976479;28;20503;-87
2021/12/17 17:00:43;;;;;;;12.50;7.33;;;9.50;99.90;;;;;;4977462;28;20030;-87
2021/12/17 17:03:10;;;;;;;18.73;8.07;;;9.50;99.90;;;;;;4977152;28;20241;-86
2021/12/17 17:05:35;;;;;;;13.13;7.20;;;9.50;99.90;;;;;;4994015;28;20105;-86
2021/12/17 17:08:01;;;;;;;11.77;7.50;;;9.50;99.90;;;;;;4976971;28;20125;-85
2021/12/17 17:10:33;;;;;;;12.60;7.80;;;9.50;99.90;;;;;;4977852;28;20034;-85